createdAt,value
2023-10-20T00:02:15.008Z,13.3
2023-10-20T00:32:14.909Z,13.16
2023-10-20T01:02:14.827Z,13.05
2023-10-20T01:32:14.603Z,12.97
2023-10-20T02:02:14.529Z,12.93
2023-10-20T02:32:14.466Z,12.89
2023-10-20T03:02:14.327Z,12.94
2023-10-20T04:02:14.180Z,12.87
2023-10-20T04:32:13.974Z,12.99
2023-10-20T05:02:13.847Z,13.14
2023-10-20T05:32:13.673Z,13.28
2023-10-20T06:02:13.570Z,13.35
2023-10-20T06:32:13.381Z,13.28
2023-10-20T07:02:13.309Z,13.14
2023-10-20T07:32:13.254Z,13.02
2023-10-20T08:02:13.150Z,12.97
2023-10-20T08:32:13.083Z,12.87
2023-10-20T09:02:12.822Z,12.82
2023-10-20T09:32:12.972Z,12.72
2023-10-20T10:02:12.496Z,12.6
2023-10-20T10:32:12.395Z,12.43
2023-10-20T11:02:12.259Z,12.53
2023-10-20T11:32:12.177Z,12.6
2023-10-20T12:02:12.101Z,12.43
2023-10-20T12:31:22.920Z,12.12
2023-10-20T13:02:11.885Z,12.11
2023-10-20T13:32:11.754Z,12.04
2023-10-20T14:32:11.500Z,12.17
2023-10-20T15:00:22.458Z,12.48
2023-10-20T15:02:11.318Z,12.55
2023-10-20T15:08:22.376Z,12.94
2023-10-20T15:14:22.436Z,13.27
2023-10-20T15:22:22.396Z,13.58
2023-10-20T15:32:11.349Z,13.78
2023-10-20T16:02:11.131Z,13.66
2023-10-20T16:21:22.143Z,13.35
2023-10-20T16:32:11.003Z,13.21
2023-10-20T17:02:10.928Z,12.97
2023-10-20T17:28:22.059Z,12.66
2023-10-20T17:32:10.870Z,12.62
2023-10-20T18:02:10.780Z,12.74
2023-10-20T18:32:10.714Z,12.66
2023-10-20T18:43:21.894Z,12.34
2023-10-20T19:02:10.623Z,12.23
2023-10-20T19:32:10.507Z,12.17
2023-10-20T20:02:10.450Z,12.01
2023-10-20T20:32:10.340Z,12.04
2023-10-20T21:02:10.246Z,12.14
2023-10-20T21:32:10.198Z,12.06
2023-10-20T21:52:21.509Z,11.75
2023-10-20T22:02:10.705Z,11.71
2023-10-20T22:32:09.915Z,11.59
2023-10-20T23:02:09.883Z,11.56
2023-10-20T23:18:21.410Z,11.25
